createdAt,value
2023-04-18T00:00:06.236Z,93084.31
2023-04-18T00:02:55.273Z,93072.84
2023-04-18T00:05:38.714Z,93068.78
2023-04-18T00:08:21.507Z,93069.59
2023-04-18T00:11:05.750Z,93070.78
2023-04-18T00:13:48.556Z,93079.81
2023-04-18T00:16:33.123Z,93074.03
2023-04-18T00:19:15.960Z,93075.66
2023-04-18T00:21:59.909Z,93076.59
2023-04-18T00:24:42.687Z,93083.31
2023-04-18T00:27:27.218Z,93076.66
2023-04-18T00:30:10.851Z,93085.44
2023-04-18T00:32:53.644Z,93079.97
2023-04-18T00:35:38.178Z,93081.25
2023-04-18T00:38:20.924Z,93073.44
2023-04-18T00:41:04.151Z,93072.25
2023-04-18T00:43:48.274Z,93069.09
2023-04-18T00:46:31.132Z,93071.41
2023-04-18T00:49:14.121Z,93070.63
2023-04-18T00:51:57.598Z,93074.50
2023-04-18T00:54:41.104Z,93073.81
2023-04-18T00:57:24.565Z,93075.16
2023-04-18T01:00:10.131Z,93076.09
2023-04-18T01:02:55.885Z,93083.66
2023-04-18T01:05:39.496Z,93078.53
2023-04-18T01:08:23.306Z,93075.28
2023-04-18T01:11:06.250Z,93073.81
2023-04-18T01:14:00.454Z,93066.19
2023-04-18T01:16:44.995Z,93063.22
2023-04-18T01:19:27.906Z,93066.25
2023-04-18T01:22:14.292Z,93070.00
2023-04-18T01:24:58.632Z,93068.38
2023-04-18T01:27:41.439Z,93069.56
2023-04-18T01:30:24.292Z,93072.78
2023-04-18T01:33:07.604Z,93075.25
2023-04-18T01:35:50.463Z,93075.94
2023-04-18T01:38:34.228Z,93068.25
2023-04-18T01:41:18.372Z,93067.19
2023-04-18T01:44:01.130Z,93060.34
2023-04-18T01:46:43.982Z,93063.84
2023-04-18T01:49:26.770Z,93061.63
2023-04-18T01:52:09.603Z,93060.28
2023-04-18T01:54:52.398Z,93061.56
2023-04-18T01:57:37.652Z,93053.41
2023-04-18T02:00:21.659Z,93062.47
2023-04-18T02:03:05.057Z,93044.88
2023-04-18T02:05:48.131Z,93047.44
2023-04-18T02:08:33.085Z,93052.16
2023-04-18T02:11:15.922Z,93048.91
2023-04-18T02:14:00.238Z,93054.28
2023-04-18T02:16:43.091Z,93048.75
2023-04-18T02:19:26.335Z,93050.63
2023-04-18T02:22:09.118Z,93058.03
2023-04-18T02:24:51.928Z,93053.03
2023-04-18T02:27:34.960Z,93061.28
2023-04-18T02:30:19.155Z,93057.53
2023-04-18T02:33:02.020Z,93053.34
2023-04-18T02:35:44.794Z,93054.16
2023-04-18T02:38:27.592Z,93066.94
2023-04-18T02:41:14.996Z,93074.25
2023-04-18T02:43:58.172Z,93061.22
2023-04-18T02:46:42.717Z,93063.53
2023-04-18T02:49:28.409Z,93072.44
2023-04-18T02:52:11.200Z,93051.84
2023-04-18T02:54:53.987Z,93055.91
2023-04-18T02:57:41.590Z,93052.53
2023-04-18T03:00:26.973Z,93054.97
2023-04-18T03:03:18.923Z,93058.06
2023-04-18T03:06:26.959Z,93056.91
2023-04-18T03:09:10.038Z,93066.97
2023-04-18T03:11:58.500Z,93060.69
2023-04-18T03:14:45.384Z,93067.28
2023-04-18T03:17:30.144Z,93068.28
2023-04-18T03:20:14.881Z,93066.78
2023-04-18T03:22:57.761Z,93058.19
2023-04-18T03:25:42.870Z,93060.72
2023-04-18T03:28:26.030Z,93057.34
2023-04-18T03:31:09.633Z,93056.66
2023-04-18T03:33:55.344Z,93059.91
2023-04-18T03:36:39.536Z,93056.41
2023-04-18T03:39:22.447Z,93059.81
2023-04-18T03:42:05.254Z,93054.69
2023-04-18T03:44:49.550Z,93050.38
2023-04-18T03:47:33.495Z,93052.78
2023-04-18T03:50:16.569Z,93051.03
2023-04-18T03:53:02.893Z,93047.66
2023-04-18T03:55:49.164Z,93046.88
2023-04-18T03:58:36.443Z,93051.28
2023-04-18T04:01:19.258Z,93062.91
2023-04-18T04:04:03.049Z,93058.47
2023-04-18T04:06:46.295Z,93057.34
2023-04-18T04:09:30.595Z,93053.75
2023-04-18T04:12:13.482Z,93059.28
2023-04-18T04:14:56.266Z,93060.63
2023-04-18T04:17:39.140Z,93056.31
2023-04-18T04:20:24.699Z,93052.72
2023-04-18T04:23:14.503Z,93058.09
2023-04-18T04:26:04.153Z,93058.09
2023-04-18T04:28:58.539Z,93062.13
2023-04-18T04:31:43.819Z,93068.31
2023-04-18T04:34:26.795Z,93067.38
2023-04-18T04:37:10.215Z,93060.19
2023-04-18T04:40:04.734Z,93063.88
2023-04-18T04:42:58.743Z,93062.25
2023-04-18T04:45:49.611Z,93061.19
2023-04-18T04:48:32.430Z,93057.56
2023-04-18T04:51:15.221Z,93064.97
2023-04-18T04:53:58.070Z,93072.53
2023-04-18T04:56:40.918Z,93065.53
2023-04-18T04:59:25.322Z,93058.66
2023-04-18T05:02:08.464Z,93062.59
2023-04-18T05:04:52.205Z,93066.13
2023-04-18T05:07:35.166Z,93070.75
2023-04-18T05:10:18.058Z,93070.34
2023-04-18T05:13:00.857Z,93069.94
2023-04-18T05:15:45.579Z,93075.75
2023-04-18T05:18:28.476Z,93073.72
2023-04-18T05:21:11.432Z,93079.97
2023-04-18T05:23:54.375Z,93072.94
2023-04-18T05:26:37.356Z,93079.56
2023-04-18T05:29:20.398Z,93086.97
2023-04-18T05:32:04.741Z,93076.84
2023-04-18T05:34:47.908Z,93073.50
2023-04-18T05:37:30.784Z,93069.94
2023-04-18T05:40:14.667Z,93074.66
2023-04-18T05:42:57.556Z,93075.34
2023-04-18T05:45:40.712Z,93074.00
2023-04-18T05:48:25.462Z,93076.97
2023-04-18T05:51:10.026Z,93085.19
2023-04-18T05:53:54.433Z,93086.69
2023-04-18T05:56:37.473Z,93091.53
2023-04-18T05:59:20.678Z,93093.56
2023-04-18T06:02:03.474Z,93090.88
2023-04-18T06:04:48.746Z,93091.69
2023-04-18T06:07:32.389Z,93099.56
2023-04-18T06:10:15.808Z,93096.66
2023-04-18T06:12:58.577Z,93105.00
2023-04-18T06:15:41.846Z,93099.34
2023-04-18T06:18:24.725Z,93100.84
2023-04-18T06:21:08.973Z,93113.28
2023-04-18T06:23:51.732Z,93102.34
2023-04-18T06:26:34.739Z,93116.09
2023-04-18T06:29:18.225Z,93110.97
2023-04-18T06:32:01.061Z,93117.56
2023-04-18T06:34:44.827Z,93114.06
2023-04-18T06:37:29.070Z,93119.19
2023-04-18T06:40:12.978Z,93109.09
2023-04-18T06:42:55.829Z,93117.72
2023-04-18T06:45:38.930Z,93123.38
2023-04-18T06:48:21.748Z,93119.63
2023-04-18T06:51:04.748Z,93115.03
2023-04-18T06:53:52.498Z,93119.38
2023-04-18T06:56:36.525Z,93107.75
2023-04-18T06:59:21.416Z,93109.50
2023-04-18T07:02:04.192Z,93113.66
2023-04-18T07:04:47.528Z,93111.53
2023-04-18T07:07:30.367Z,93110.72
2023-04-18T07:10:14.560Z,93115.28
2023-04-18T07:12:57.332Z,93115.84
2023-04-18T07:15:40.136Z,93118.13
2023-04-18T07:18:34.092Z,93123.41
2023-04-18T07:21:17.455Z,93121.53
2023-04-18T07:24:00.228Z,93118.81
2023-04-18T07:26:44.574Z,93122.06
2023-04-18T07:29:27.345Z,93116.94
2023-04-18T07:32:10.666Z,93122.75
2023-04-18T07:34:53.784Z,93130.56
2023-04-18T07:37:36.952Z,93123.53
2023-04-18T07:40:19.931Z,93125.88
2023-04-18T07:43:04.116Z,93134.66
2023-04-18T07:45:46.913Z,93139.38
2023-04-18T07:48:29.687Z,93132.91
2023-04-18T07:51:12.978Z,93134.94
2023-04-18T07:53:55.709Z,93136.16
2023-04-18T07:56:38.560Z,93139.94
2023-04-18T07:59:22.669Z,93140.47
2023-04-18T08:02:05.554Z,93141.56
2023-04-18T08:04:50.079Z,93143.31
2023-04-18T08:07:32.841Z,93143.19
2023-04-18T08:10:15.669Z,93141.56
2023-04-18T08:12:58.457Z,93141.69
2023-04-18T08:15:44.212Z,93143.31
2023-04-18T08:18:27.083Z,93141.84
2023-04-18T08:21:09.901Z,93142.22
2023-04-18T08:23:52.662Z,93146.13
2023-04-18T08:26:35.559Z,93143.16
2023-04-18T08:29:18.363Z,93140.31
2023-04-18T08:32:02.821Z,93136.25
2023-04-18T08:34:46.848Z,93139.88
2023-04-18T08:37:30.231Z,93141.06
2023-04-18T08:40:13.250Z,93149.59
2023-04-18T08:42:58.436Z,93155.28
2023-04-18T08:45:41.535Z,93152.34
2023-04-18T08:48:26.371Z,93163.66
2023-04-18T08:51:09.273Z,93169.91
2023-04-18T08:53:52.093Z,93167.19
2023-04-18T08:56:37.453Z,93170.84
2023-04-18T08:59:20.518Z,93179.66
2023-04-18T09:02:05.010Z,93181.28
2023-04-18T09:04:52.482Z,93184.78
2023-04-18T09:07:35.318Z,93176.25
2023-04-18T09:10:27.526Z,93182.75
2023-04-18T09:13:10.379Z,93184.88
2023-04-18T09:15:56.119Z,93190.00
2023-04-18T09:18:38.905Z,93190.44
2023-04-18T09:21:23.660Z,93188.56
2023-04-18T09:24:20.752Z,93186.78
2023-04-18T09:27:04.332Z,93199.09
2023-04-18T09:29:49.397Z,93189.34
2023-04-18T09:32:33.274Z,93193.28
2023-04-18T09:35:25.896Z,93191.28
2023-04-18T09:38:10.243Z,93191.41
2023-04-18T09:41:08.924Z,93190.88
2023-04-18T09:44:09.297Z,93199.50
2023-04-18T09:46:53.802Z,93194.47
2023-04-18T09:49:36.614Z,93191.38
2023-04-18T09:52:21.101Z,93192.72
2023-04-18T09:55:06.938Z,93191.34
2023-04-18T09:57:50.118Z,93191.19
2023-04-18T10:00:36.445Z,93195.13
2023-04-18T10:03:20.849Z,93191.34
2023-04-18T10:06:04.605Z,93197.00
2023-04-18T10:08:49.034Z,93190.66
2023-04-18T10:11:33.295Z,93187.69
2023-04-18T10:14:17.476Z,93195.00
2023-04-18T10:17:01.111Z,93197.44
2023-04-18T10:19:46.013Z,93193.41
2023-04-18T10:22:28.926Z,93196.38
2023-04-18T10:25:11.714Z,93194.75
2023-04-18T10:28:02.969Z,93190.44
2023-04-18T10:30:57.766Z,93188.97
2023-04-18T10:33:42.781Z,93188.41
2023-04-18T10:36:26.858Z,93188.56
2023-04-18T10:39:22.461Z,93190.88
2023-04-18T10:42:05.643Z,93178.28
2023-04-18T10:45:19.611Z,93191.81
2023-04-18T10:48:26.061Z,93182.16
2023-04-18T10:51:20.911Z,93187.44
2023-04-18T10:54:04.663Z,93182.16
2023-04-18T10:56:54.241Z,93183.38
2023-04-18T10:59:39.881Z,93179.56
2023-04-18T11:02:30.047Z,93180.75
2023-04-18T11:05:13.118Z,93178.31
2023-04-18T11:07:56.034Z,93177.88
2023-04-18T11:10:38.950Z,93170.09
2023-04-18T11:13:21.750Z,93170.63
2023-04-18T11:16:05.321Z,93170.63
2023-04-18T11:18:49.481Z,93182.28
2023-04-18T11:21:32.213Z,93179.19
2023-04-18T11:24:23.119Z,93175.94
2023-04-18T11:27:06.640Z,93172.25
2023-04-18T11:29:53.932Z,93180.50
2023-04-18T11:32:37.005Z,93183.22
2023-04-18T11:35:21.276Z,93184.31
2023-04-18T11:38:04.624Z,93184.81
2023-04-18T11:40:51.250Z,93183.31
2023-04-18T11:43:34.694Z,93183.28
2023-04-18T11:46:17.547Z,93192.19
2023-04-18T11:49:00.388Z,93190.16
2023-04-18T11:51:46.289Z,93189.47
2023-04-18T11:54:42.604Z,93189.66
2023-04-18T11:57:26.795Z,93186.41
2023-04-18T12:00:12.231Z,93186.94
2023-04-18T12:02:55.184Z,93188.13
2023-04-18T12:05:39.255Z,93184.06
2023-04-18T12:08:23.597Z,93185.81
2023-04-18T12:11:06.348Z,93192.44
2023-04-18T12:13:49.333Z,93190.25
2023-04-18T12:16:33.440Z,93187.41
2023-04-18T12:19:17.065Z,93191.31
2023-04-18T12:22:01.623Z,93193.06
2023-04-18T12:24:46.232Z,93188.47
2023-04-18T12:27:48.084Z,93183.84
2023-04-18T12:30:33.393Z,93182.28
2023-04-18T12:33:17.432Z,93177.81
2023-04-18T12:36:00.835Z,93182.78
2023-04-18T12:38:43.756Z,93182.81
2023-04-18T12:41:27.881Z,93182.97
2023-04-18T12:44:10.637Z,93179.69
2023-04-18T12:46:53.439Z,93175.22
2023-04-18T12:49:36.350Z,93175.75
2023-04-18T12:52:19.089Z,93177.59
2023-04-18T12:55:01.997Z,93185.50
2023-04-18T12:57:46.168Z,93181.41
2023-04-18T13:00:30.420Z,93178.84
2023-04-18T13:03:13.745Z,93178.97
2023-04-18T13:05:56.659Z,93181.13
2023-04-18T13:08:39.453Z,93182.75
2023-04-18T13:11:22.530Z,93187.94
2023-04-18T13:14:07.094Z,93179.00
2023-04-18T13:16:49.898Z,93185.19
2023-04-18T13:19:32.824Z,93186.25
2023-04-18T13:22:15.775Z,93192.09
2023-04-18T13:24:58.571Z,93199.44
2023-04-18T13:27:42.470Z,93194.03
2023-04-18T13:30:26.862Z,93194.94
2023-04-18T13:33:10.617Z,93198.59
2023-04-18T13:35:53.766Z,93204.47
2023-04-18T13:38:36.553Z,93207.63
2023-04-18T13:41:19.322Z,93207.75
2023-04-18T13:44:02.091Z,93207.75
2023-04-18T13:46:46.342Z,93205.78
2023-04-18T13:49:29.355Z,93212.94
2023-04-18T13:52:12.183Z,93210.47
2023-04-18T13:54:56.409Z,93214.53
2023-04-18T13:57:39.209Z,93207.00
2023-04-18T14:00:22.192Z,93207.81
2023-04-18T14:03:06.894Z,93211.47
2023-04-18T14:05:49.753Z,93208.91
2023-04-18T14:08:32.569Z,93205.50
2023-04-18T14:11:15.320Z,93214.06
2023-04-18T14:13:58.095Z,93207.97
2023-04-18T14:16:40.858Z,93207.94
2023-04-18T14:19:25.129Z,93194.69
2023-04-18T14:22:08.099Z,93200.75
2023-04-18T14:24:52.353Z,93203.81
2023-04-18T14:27:35.154Z,93201.66
2023-04-18T14:30:17.967Z,93199.19
2023-04-18T14:33:00.770Z,93200.56
2023-04-18T14:35:45.050Z,93195.28
2023-04-18T14:38:27.879Z,93192.25
2023-04-18T14:41:11.093Z,93200.06
2023-04-18T14:43:53.930Z,93196.94
2023-04-18T14:49:19.573Z,93186.72
2023-04-18T14:52:03.706Z,93188.88
2023-04-18T14:54:46.482Z,93187.16
2023-04-18T14:57:29.321Z,93181.28
2023-04-18T15:00:14.651Z,93187.34
2023-04-18T15:02:57.534Z,93184.72
2023-04-18T15:05:42.939Z,93184.88
2023-04-18T15:08:27.362Z,93181.03
2023-04-18T15:11:10.123Z,93188.63
2023-04-18T15:13:52.897Z,93192.38
2023-04-18T15:16:38.028Z,93183.66
2023-04-18T15:19:20.887Z,93184.31
2023-04-18T15:22:03.811Z,93181.06
2023-04-18T15:24:48.384Z,93186.88
2023-04-18T15:27:31.159Z,93184.16
2023-04-18T15:30:14.505Z,93183.13
2023-04-18T15:32:57.322Z,93190.97
2023-04-18T15:35:40.183Z,93189.25
2023-04-18T15:38:23.262Z,93194.66
2023-04-18T15:41:07.448Z,93197.38
2023-04-18T15:43:50.306Z,93196.41
2023-04-18T15:46:33.200Z,93197.25
2023-04-18T15:49:16.198Z,93189.53
2023-04-18T15:51:58.997Z,93198.47
2023-04-18T15:54:42.791Z,93200.81
2023-04-18T15:57:29.337Z,93201.09
2023-04-18T16:00:15.894Z,93206.16
2023-04-18T16:02:58.864Z,93214.22
2023-04-18T16:05:41.820Z,93215.31
2023-04-18T16:08:24.633Z,93218.69
2023-04-18T16:11:08.359Z,93221.25
2023-04-18T16:13:52.725Z,93224.78
2023-04-18T16:16:35.523Z,93225.06
2023-04-18T16:19:18.432Z,93223.19
2023-04-18T16:22:01.257Z,93229.19
2023-04-18T16:24:44.027Z,93224.31
2023-04-18T16:27:26.774Z,93230.81
2023-04-18T16:30:11.924Z,93226.06
2023-04-18T16:32:55.428Z,93230.09
2023-04-18T16:35:38.684Z,93236.59
2023-04-18T16:38:23.522Z,93235.25
2023-04-18T16:41:06.518Z,93236.75
2023-04-18T16:43:49.281Z,93242.22
2023-04-18T16:46:33.479Z,93236.00
2023-04-18T16:49:16.307Z,93241.56
2023-04-18T16:51:59.068Z,93230.88
2023-04-18T16:54:42.082Z,93241.69
2023-04-18T16:57:24.851Z,93240.22
2023-04-18T17:00:10.224Z,93242.91
2023-04-18T17:02:55.789Z,93238.06
2023-04-18T17:05:39.378Z,93241.16
2023-04-18T17:08:22.153Z,93244.00
2023-04-18T17:11:05.006Z,93240.91
2023-04-18T17:13:48.097Z,93244.59
2023-04-18T17:16:31.426Z,93254.97
2023-04-18T17:19:16.379Z,93251.63
2023-04-18T17:21:59.281Z,93246.22
2023-04-18T17:24:42.112Z,93255.81
2023-04-18T17:27:25.093Z,93250.94
2023-04-18T17:30:08.914Z,93253.09
2023-04-18T17:32:51.705Z,93256.25
2023-04-18T17:35:37.116Z,93258.91
2023-04-18T17:38:19.878Z,93262.44
2023-04-18T17:41:04.617Z,93271.50
2023-04-18T17:43:47.803Z,93260.44
2023-04-18T17:46:30.762Z,93265.28
2023-04-18T17:49:13.814Z,93262.84
2023-04-18T17:51:58.031Z,93261.09
2023-04-18T17:54:40.801Z,93266.34
2023-04-18T17:57:26.028Z,93262.97
2023-04-18T18:00:10.463Z,93266.88
2023-04-18T18:02:55.230Z,93263.47
2023-04-18T18:05:38.110Z,93268.59
2023-04-18T18:08:22.546Z,93271.16
2023-04-18T18:11:06.144Z,93268.31
2023-04-18T18:13:51.666Z,93266.59
2023-04-18T18:16:34.717Z,93271.84
2023-04-18T18:19:17.674Z,93275.63
2023-04-18T18:22:00.431Z,93276.16
2023-04-18T18:24:44.568Z,93273.72
2023-04-18T18:27:27.325Z,93276.41
2023-04-18T18:30:10.433Z,93273.16
2023-04-18T18:32:53.582Z,93288.81
2023-04-18T18:35:36.565Z,93289.88
2023-04-18T18:38:19.331Z,93280.03
2023-04-18T18:41:04.633Z,93284.06
2023-04-18T18:43:47.398Z,93292.44
2023-04-18T18:46:30.309Z,93287.56
2023-04-18T18:49:13.373Z,93286.50
2023-04-18T18:51:56.933Z,93290.94
2023-04-18T18:54:39.734Z,93289.06
2023-04-18T18:57:23.931Z,93292.69
2023-04-18T19:00:09.679Z,93290.25
2023-04-18T19:02:53.000Z,93293.91
2023-04-18T19:05:35.901Z,93286.22
2023-04-18T19:08:18.666Z,93291.88
2023-04-18T19:11:01.514Z,93286.50
2023-04-18T19:13:45.640Z,93295.66
2023-04-18T19:16:29.705Z,93293.25
2023-04-18T19:19:12.617Z,93290.94
2023-04-18T19:21:55.559Z,93285.56
2023-04-18T19:24:38.466Z,93286.75
2023-04-18T19:27:21.249Z,93282.53
2023-04-18T19:30:06.193Z,93280.75
2023-04-18T19:32:49.037Z,93276.56
2023-04-18T19:35:31.854Z,93285.06
2023-04-18T19:38:14.612Z,93275.06
2023-04-18T19:40:57.511Z,93285.78
2023-04-18T19:43:42.425Z,93282.59
2023-04-18T19:46:26.843Z,93282.34
2023-04-18T19:49:09.706Z,93290.56
2023-04-18T19:51:52.814Z,93293.00
2023-04-18T19:54:35.752Z,93294.63
2023-04-18T19:57:18.521Z,93288.00
2023-04-18T20:00:01.416Z,93288.00
2023-04-18T20:02:45.613Z,93287.81
2023-04-18T20:05:28.542Z,93285.00
2023-04-18T20:08:11.406Z,93292.59
2023-04-18T20:10:54.166Z,93288.69
2023-04-18T20:13:37.637Z,93289.78
2023-04-18T20:16:21.060Z,93283.03
2023-04-18T20:19:05.623Z,93286.78
2023-04-18T20:21:48.387Z,93284.91
2023-04-18T20:24:31.729Z,93275.78
2023-04-18T20:27:14.502Z,93283.34
2023-04-18T20:29:57.553Z,93282.25
2023-04-18T20:32:40.389Z,93291.41
2023-04-18T20:35:24.593Z,93275.50
2023-04-18T20:38:08.858Z,93282.44
2023-04-18T20:40:52.875Z,93287.06
2023-04-18T20:43:37.217Z,93285.69
2023-04-18T20:46:20.141Z,93290.97
2023-04-18T20:49:02.953Z,93289.19
2023-04-18T20:51:47.434Z,93283.28
2023-04-18T20:54:30.469Z,93285.78
2023-04-18T20:57:13.303Z,93286.78
2023-04-18T20:59:58.525Z,93283.13
2023-04-18T21:02:42.041Z,93288.41
2023-04-18T21:05:25.035Z,93285.56
2023-04-18T21:08:09.147Z,93280.72
2023-04-18T21:10:52.351Z,93288.50
2023-04-18T21:13:35.529Z,93282.44
2023-04-18T21:16:18.398Z,93288.25
2023-04-18T21:19:01.190Z,93296.50
2023-04-18T21:21:43.957Z,93298.38
2023-04-18T21:24:28.061Z,93295.00
2023-04-18T21:27:11.467Z,93282.69
2023-04-18T21:29:54.262Z,93293.53
2023-04-18T21:32:37.141Z,93291.13
2023-04-18T21:35:21.929Z,93293.00
2023-04-18T21:38:06.334Z,93291.66
2023-04-18T21:40:50.447Z,93292.09
2023-04-18T21:43:33.193Z,93296.69
2023-04-18T21:46:16.319Z,93288.84
2023-04-18T21:48:59.448Z,93302.09
2023-04-18T21:51:42.253Z,93291.03
2023-04-18T21:54:25.001Z,93288.22
2023-04-18T21:57:09.149Z,93294.16
2023-04-18T21:59:51.864Z,93300.22
2023-04-18T22:02:34.706Z,93297.41
2023-04-18T22:05:17.851Z,93300.22
2023-04-18T22:08:00.755Z,93299.97
2023-04-18T22:10:43.540Z,93301.31
2023-04-18T22:13:32.971Z,93294.22
2023-04-18T22:16:15.967Z,93291.66
2023-04-18T22:18:58.762Z,93293.09
2023-04-18T22:21:41.702Z,93297.28
2023-04-18T22:24:25.878Z,93292.41
2023-04-18T22:27:08.672Z,93281.09
2023-04-18T22:29:52.797Z,93286.34
2023-04-18T22:32:35.853Z,93280.66
2023-04-18T22:35:18.828Z,93281.34
2023-04-18T22:38:01.708Z,93285.25
2023-04-18T22:40:44.473Z,93293.28
2023-04-18T22:43:27.240Z,93285.56
2023-04-18T22:46:11.471Z,93283.53
2023-04-18T22:48:54.237Z,93289.63
2023-04-18T22:51:38.252Z,93284.81
2023-04-18T22:54:21.105Z,93276.97
2023-04-18T22:57:03.910Z,93281.31
2023-04-18T22:59:46.663Z,93280.91
2023-04-18T23:02:30.914Z,93276.19
2023-04-18T23:05:15.512Z,93277.91
2023-04-18T23:08:00.208Z,93269.81
2023-04-18T23:10:43.361Z,93274.13
2023-04-18T23:13:26.139Z,93274.13
2023-04-18T23:16:09.400Z,93274.91
2023-04-18T23:18:53.677Z,93263.13
2023-04-18T23:21:36.516Z,93265.84
2023-04-18T23:24:19.269Z,93263.81
2023-04-18T23:27:02.412Z,93258.28
2023-04-18T23:29:48.731Z,93257.47
2023-04-18T23:32:31.637Z,93262.28
2023-04-18T23:35:15.750Z,93257.66
2023-04-18T23:37:58.529Z,93254.78
2023-04-18T23:40:41.277Z,93259.91
2023-04-18T23:43:24.068Z,93252.22
2023-04-18T23:46:06.928Z,93249.81
2023-04-18T23:48:49.721Z,93252.50
2023-04-18T23:51:33.845Z,93252.63
2023-04-18T23:54:16.801Z,93250.19
2023-04-18T23:56:59.716Z,93249.38
2023-04-18T23:59:42.613Z,93246.25
